PN64 weather

Hilling International Airport
Huntingdon, Pennsylvania, United States

Public forecast

Using degrees Fahrenheit for public forecast. Weather courtesy of forecast.io.

METAR (pilot weather report)

Closest report is University Park Airport, 21.2 nm (39.3 km) N. Retrieved 2019/05/22 13:53 UTC (13 minutes ago):

KUNV 221353Z 00000KT 10SM SKC 14/07 A3029

TAF (pilot weather forecast)

Closest forecast is University Park Airport, 21.2 nm (39.3 km) N. Retrieved 2019/05/22 12:30 UTC (2 hours ago):

TAF KUNV 221128Z 2212/2312 00000KT P6SM FEW250 FM221400 12005KT P6SM SCT250 FM221600 15009KT P6SM SCT070 BKN250 FM222200 17006KT P6SM SCT060 BKN150 FM230500 18005KT P6SM -SHRA OVC050